Grove City (29D)
Grove City, PA
Field Elevation: 1371
Lat: 41°08.00N  Long: 80°10.00W
CTAF/Unicom Freq: 122.7000
   
     For Weather-by-Phone, call 724 748-3504
Weather Advisories
4/20/2014 08:54 Z
Altimeter 30.32" Hg
Wind 120° @ 4 KT
Gusts --
Visibility 10 SM
Temperature 7° C (45° F)
Dewpoint -4° C (25° F)
Relative Humidity 47%
Density Altitude --
Condensation Altitude 6,600 feet
Wind Chill 6° C (43° F)
  Wind and Runways
Indicated Runway = 10
History
 
 
More Info
All DigiWx sites map
NOAA Forecast
 
Airport IQ 5010
(LHV) Lock Haven
(74PN) Altoona Regional
 
about DigiWx
 
FAA Disclaimer: The data displayed is for advisory purposes only and is not to be used for flight planning or operations. For official data, please call 724 748-3504 to hear the current automated AWOS voice message.
  METAR 29D 200854Z AUTO 12004KT 10SM 07/M04 A3032